sensor_id;sensor_type;location;lat;lon;timestamp;P1;durP1;ratioP1;P2;durP2;ratioP2
66751;SDS011;53663;42.676;23.238;2023-10-08T00:02:23;6.10;;;3.10;;
66751;SDS011;53663;42.676;23.238;2023-10-08T00:04:54;7.30;;;3.45;;
66751;SDS011;53663;42.676;23.238;2023-10-08T00:07:20;6.30;;;3.30;;
66751;SDS011;53663;42.676;23.238;2023-10-08T00:09:47;9.88;;;3.35;;
66751;SDS011;53663;42.676;23.238;2023-10-08T00:12:16;7.38;;;3.20;;
66751;SDS011;53663;42.676;23.238;2023-10-08T00:14:41;5.95;;;3.10;;
66751;SDS011;53663;42.676;23.238;2023-10-08T00:17:12;7.88;;;3.67;;
66751;SDS011;53663;42.676;23.238;2023-10-08T00:19:37;5.63;;;3.05;;
66751;SDS011;53663;42.676;23.238;2023-10-08T00:22:04;7.70;;;3.50;;
66751;SDS011;53663;42.676;23.238;2023-10-08T00:24:32;7.13;;;3.25;;
66751;SDS011;53663;42.676;23.238;2023-10-08T00:26:59;7.32;;;3.30;;
66751;SDS011;53663;42.676;23.238;2023-10-08T00:29:25;7.43;;;3.15;;
66751;SDS011;53663;42.676;23.238;2023-10-08T00:31:51;6.90;;;3.15;;
66751;SDS011;53663;42.676;23.238;2023-10-08T00:34:18;6.60;;;3.50;;
66751;SDS011;53663;42.676;23.238;2023-10-08T00:36:45;8.10;;;3.50;;
66751;SDS011;53663;42.676;23.238;2023-10-08T00:39:15;5.97;;;3.53;;
66751;SDS011;53663;42.676;23.238;2023-10-08T00:41:52;7.07;;;3.55;;
66751;SDS011;53663;42.676;23.238;2023-10-08T00:44:23;9.20;;;3.63;;
66751;SDS011;53663;42.676;23.238;2023-10-08T00:46:56;6.55;;;3.55;;
66751;SDS011;53663;42.676;23.238;2023-10-08T00:49:22;6.22;;;3.05;;
66751;SDS011;53663;42.676;23.238;2023-10-08T00:51:56;8.40;;;3.47;;
66751;SDS011;53663;42.676;23.238;2023-10-08T00:54:46;6.65;;;3.80;;
66751;SDS011;53663;42.676;23.238;2023-10-08T00:57:30;6.80;;;3.38;;
66751;SDS011;53663;42.676;23.238;2023-10-08T01:00:00;6.57;;;3.63;;
66751;SDS011;53663;42.676;23.238;2023-10-08T01:02:26;10.80;;;3.40;;
66751;SDS011;53663;42.676;23.238;2023-10-08T01:04:54;9.55;;;3.70;;
66751;SDS011;53663;42.676;23.238;2023-10-08T01:07:21;8.20;;;3.63;;
66751;SDS011;53663;42.676;23.238;2023-10-08T01:09:48;7.93;;;3.53;;
66751;SDS011;53663;42.676;23.238;2023-10-08T01:12:22;7.13;;;3.60;;
66751;SDS011;53663;42.676;23.238;2023-10-08T01:14:48;6.93;;;3.55;;
66751;SDS011;53663;42.676;23.238;2023-10-08T01:17:18;8.47;;;3.57;;
66751;SDS011;53663;42.676;23.238;2023-10-08T01:19:47;7.25;;;3.38;;
66751;SDS011;53663;42.676;23.238;2023-10-08T01:22:16;10.65;;;3.40;;
66751;SDS011;53663;42.676;23.238;2023-10-08T01:24:46;6.03;;;3.25;;
66751;SDS011;53663;42.676;23.238;2023-10-08T01:27:16;6.13;;;2.83;;
66751;SDS011;53663;42.676;23.238;2023-10-08T01:29:49;9.15;;;3.20;;
66751;SDS011;53663;42.676;23.238;2023-10-08T01:32:18;5.93;;;3.13;;
66751;SDS011;53663;42.676;23.238;2023-10-08T01:34:45;6.95;;;3.42;;
66751;SDS011;53663;42.676;23.238;2023-10-08T01:37:12;5.38;;;3.13;;
66751;SDS011;53663;42.676;23.238;2023-10-08T01:39:47;5.30;;;2.92;;
66751;SDS011;53663;42.676;23.238;2023-10-08T01:42:15;6.07;;;3.08;;
66751;SDS011;53663;42.676;23.238;2023-10-08T01:44:46;9.73;;;3.42;;
66751;SDS011;53663;42.676;23.238;2023-10-08T01:47:12;5.78;;;3.15;;
66751;SDS011;53663;42.676;23.238;2023-10-08T01:49:39;7.45;;;3.25;;
66751;SDS011;53663;42.676;23.238;2023-10-08T01:52:05;6.20;;;3.20;;
66751;SDS011;53663;42.676;23.238;2023-10-08T01:54:34;7.35;;;3.30;;
66751;SDS011;53663;42.676;23.238;2023-10-08T01:57:03;9.15;;;3.42;;
66751;SDS011;53663;42.676;23.238;2023-10-08T01:59:31;5.80;;;3.15;;
66751;SDS011;53663;42.676;23.238;2023-10-08T02:01:57;7.68;;;3.20;;
66751;SDS011;53663;42.676;23.238;2023-10-08T02:04:23;5.45;;;3.05;;
66751;SDS011;53663;42.676;23.238;2023-10-08T02:06:48;7.82;;;3.25;;
66751;SDS011;53663;42.676;23.238;2023-10-08T02:09:14;7.90;;;3.10;;
66751;SDS011;53663;42.676;23.238;2023-10-08T02:11:41;9.52;;;3.50;;
66751;SDS011;53663;42.676;23.238;2023-10-08T02:14:10;7.93;;;3.10;;
66751;SDS011;53663;42.676;23.238;2023-10-08T02:16:37;6.78;;;3.40;;
66751;SDS011;53663;42.676;23.238;2023-10-08T02:19:04;7.35;;;3.38;;
66751;SDS011;53663;42.676;23.238;2023-10-08T02:21:29;7.70;;;2.92;;
66751;SDS011;53663;42.676;23.238;2023-10-08T02:23:56;8.07;;;3.40;;
66751;SDS011;53663;42.676;23.238;2023-10-08T02:26:21;10.57;;;5.32;;
66751;SDS011;53663;42.676;23.238;2023-10-08T02:28:48;10.32;;;4.72;;
66751;SDS011;53663;42.676;23.238;2023-10-08T02:31:15;9.02;;;3.83;;
66751;SDS011;53663;42.676;23.238;2023-10-08T02:33:43;7.40;;;3.30;;
66751;SDS011;53663;42.676;23.238;2023-10-08T02:36:09;8.02;;;3.63;;
66751;SDS011;53663;42.676;23.238;2023-10-08T02:38:35;5.28;;;3.03;;
66751;SDS011;53663;42.676;23.238;2023-10-08T02:41:03;5.63;;;2.85;;
66751;SDS011;53663;42.676;23.238;2023-10-08T02:43:32;7.90;;;3.10;;
66751;SDS011;53663;42.676;23.238;2023-10-08T02:45:59;7.53;;;3.47;;
66751;SDS011;53663;42.676;23.238;2023-10-08T02:48:25;5.63;;;3.10;;
66751;SDS011;53663;42.676;23.238;2023-10-08T02:50:52;5.95;;;3.10;;
66751;SDS011;53663;42.676;23.238;2023-10-08T02:53:19;6.55;;;3.50;;
66751;SDS011;53663;42.676;23.238;2023-10-08T02:55:49;6.53;;;3.53;;
66751;SDS011;53663;42.676;23.238;2023-10-08T02:58:15;8.02;;;3.30;;
66751;SDS011;53663;42.676;23.238;2023-10-08T03:00:44;7.82;;;3.85;;
66751;SDS011;53663;42.676;23.238;2023-10-08T03:03:17;9.63;;;3.85;;
66751;SDS011;53663;42.676;23.238;2023-10-08T03:05:51;9.07;;;3.45;;
66751;SDS011;53663;42.676;23.238;2023-10-08T03:08:18;7.10;;;3.50;;
66751;SDS011;53663;42.676;23.238;2023-10-08T03:10:46;9.77;;;3.50;;
66751;SDS011;53663;42.676;23.238;2023-10-08T03:15:42;7.55;;;3.53;;
66751;SDS011;53663;42.676;23.238;2023-10-08T03:18:22;6.55;;;3.50;;
66751;SDS011;53663;42.676;23.238;2023-10-08T03:20:48;8.43;;;3.33;;
66751;SDS011;53663;42.676;23.238;2023-10-08T03:23:15;6.20;;;3.17;;
66751;SDS011;53663;42.676;23.238;2023-10-08T03:25:54;7.53;;;3.60;;
66751;SDS011;53663;42.676;23.238;2023-10-08T03:28:22;7.35;;;3.05;;
66751;SDS011;53663;42.676;23.238;2023-10-08T03:30:51;8.25;;;3.40;;
66751;SDS011;53663;42.676;23.238;2023-10-08T03:33:28;6.95;;;3.30;;
66751;SDS011;53663;42.676;23.238;2023-10-08T03:36:04;6.50;;;3.13;;
66751;SDS011;53663;42.676;23.238;2023-10-08T03:38:56;6.20;;;3.20;;
66751;SDS011;53663;42.676;23.238;2023-10-08T03:41:23;7.90;;;3.30;;
66751;SDS011;53663;42.676;23.238;2023-10-08T03:43:53;10.57;;;3.65;;
66751;SDS011;53663;42.676;23.238;2023-10-08T03:46:27;9.43;;;3.17;;
66751;SDS011;53663;42.676;23.238;2023-10-08T03:48:54;6.15;;;3.30;;
66751;SDS011;53663;42.676;23.238;2023-10-08T03:51:22;5.65;;;2.92;;
66751;SDS011;53663;42.676;23.238;2023-10-08T03:53:52;8.27;;;3.17;;
66751;SDS011;53663;42.676;23.238;2023-10-08T03:56:24;7.68;;;3.17;;
66751;SDS011;53663;42.676;23.238;2023-10-08T03:58:59;7.43;;;3.30;;
66751;SDS011;53663;42.676;23.238;2023-10-08T04:01:38;7.90;;;3.58;;
66751;SDS011;53663;42.676;23.238;2023-10-08T04:04:09;7.95;;;3.38;;
66751;SDS011;53663;42.676;23.238;2023-10-08T04:06:39;7.70;;;3.58;;
66751;SDS011;53663;42.676;23.238;2023-10-08T04:09:13;10.70;;;3.53;;
66751;SDS011;53663;42.676;23.238;2023-10-08T04:11:59;9.15;;;3.85;;
66751;SDS011;53663;42.676;23.238;2023-10-08T04:14:33;8.25;;;3.60;;
66751;SDS011;53663;42.676;23.238;2023-10-08T04:16:59;11.90;;;4.43;;
66751;SDS011;53663;42.676;23.238;2023-10-08T04:19:25;7.22;;;3.47;;
66751;SDS011;53663;42.676;23.238;2023-10-08T04:21:54;10.52;;;3.58;;
66751;SDS011;53663;42.676;23.238;2023-10-08T04:24:24;8.95;;;3.70;;
66751;SDS011;53663;42.676;23.238;2023-10-08T04:26:57;7.20;;;3.22;;
66751;SDS011;53663;42.676;23.238;2023-10-08T04:29:23;8.35;;;3.72;;
66751;SDS011;53663;42.676;23.238;2023-10-08T04:31:49;11.25;;;3.50;;
66751;SDS011;53663;42.676;23.238;2023-10-08T04:34:26;8.65;;;3.58;;
66751;SDS011;53663;42.676;23.238;2023-10-08T04:36:55;9.27;;;3.63;;
66751;SDS011;53663;42.676;23.238;2023-10-08T04:39:26;14.63;;;4.18;;
66751;SDS011;53663;42.676;23.238;2023-10-08T04:41:59;6.20;;;3.17;;
66751;SDS011;53663;42.676;23.238;2023-10-08T04:44:32;11.93;;;3.50;;
66751;SDS011;53663;42.676;23.238;2023-10-08T04:46:58;7.93;;;3.67;;
66751;SDS011;53663;42.676;23.238;2023-10-08T04:49:30;8.23;;;3.05;;
66751;SDS011;53663;42.676;23.238;2023-10-08T04:52:01;8.00;;;3.53;;
66751;SDS011;53663;42.676;23.238;2023-10-08T04:54:40;11.18;;;3.83;;
66751;SDS011;53663;42.676;23.238;2023-10-08T04:57:11;9.30;;;3.40;;
66751;SDS011;53663;42.676;23.238;2023-10-08T04:59:41;7.03;;;3.15;;
66751;SDS011;53663;42.676;23.238;2023-10-08T05:02:07;10.60;;;3.63;;
66751;SDS011;53663;42.676;23.238;2023-10-08T05:04:49;5.97;;;3.20;;
66751;SDS011;53663;42.676;23.238;2023-10-08T05:07:22;7.18;;;3.13;;
66751;SDS011;53663;42.676;23.238;2023-10-08T05:09:51;6.65;;;3.42;;
66751;SDS011;53663;42.676;23.238;2023-10-08T05:12:29;7.53;;;3.83;;
66751;SDS011;53663;42.676;23.238;2023-10-08T05:14:57;9.32;;;3.13;;
66751;SDS011;53663;42.676;23.238;2023-10-08T05:17:42;6.05;;;3.35;;
66751;SDS011;53663;42.676;23.238;2023-10-08T05:20:14;7.20;;;3.60;;
66751;SDS011;53663;42.676;23.238;2023-10-08T05:22:59;8.30;;;3.53;;
66751;SDS011;53663;42.676;23.238;2023-10-08T05:25:52;6.70;;;3.45;;
66751;SDS011;53663;42.676;23.238;2023-10-08T05:28:23;8.73;;;3.33;;
66751;SDS011;53663;42.676;23.238;2023-10-08T05:30:54;7.72;;;3.25;;
66751;SDS011;53663;42.676;23.238;2023-10-08T05:33:42;11.02;;;4.18;;
66751;SDS011;53663;42.676;23.238;2023-10-08T05:36:27;16.88;;;6.30;;
66751;SDS011;53663;42.676;23.238;2023-10-08T05:38:53;12.35;;;5.57;;
66751;SDS011;53663;42.676;23.238;2023-10-08T05:41:45;18.05;;;5.68;;
66751;SDS011;53663;42.676;23.238;2023-10-08T05:44:17;10.35;;;4.35;;
66751;SDS011;53663;42.676;23.238;2023-10-08T05:46:43;14.27;;;4.95;;
66751;SDS011;53663;42.676;23.238;2023-10-08T05:49:14;12.60;;;5.00;;
66751;SDS011;53663;42.676;23.238;2023-10-08T05:51:40;11.73;;;5.68;;
66751;SDS011;53663;42.676;23.238;2023-10-08T05:54:29;17.55;;;6.00;;
66751;SDS011;53663;42.676;23.238;2023-10-08T05:59:32;17.17;;;5.15;;
66751;SDS011;53663;42.676;23.238;2023-10-08T06:02:21;19.77;;;5.20;;
66751;SDS011;53663;42.676;23.238;2023-10-08T06:05:00;7.45;;;3.85;;
66751;SDS011;53663;42.676;23.238;2023-10-08T06:10:21;5.70;;;3.53;;
66751;SDS011;53663;42.676;23.238;2023-10-08T06:12:57;9.20;;;3.63;;
66751;SDS011;53663;42.676;23.238;2023-10-08T06:15:52;7.82;;;3.70;;
66751;SDS011;53663;42.676;23.238;2023-10-08T06:18:22;8.85;;;4.25;;
66751;SDS011;53663;42.676;23.238;2023-10-08T06:20:55;6.47;;;3.95;;
66751;SDS011;53663;42.676;23.238;2023-10-08T06:23:24;12.25;;;4.03;;
66751;SDS011;53663;42.676;23.238;2023-10-08T06:25:51;8.48;;;4.15;;
66751;SDS011;53663;42.676;23.238;2023-10-08T06:28:53;9.77;;;4.07;;
66751;SDS011;53663;42.676;23.238;2023-10-08T06:31:23;8.45;;;4.07;;
66751;SDS011;53663;42.676;23.238;2023-10-08T06:33:50;5.90;;;3.90;;
66751;SDS011;53663;42.676;23.238;2023-10-08T06:36:15;6.47;;;3.85;;
66751;SDS011;53663;42.676;23.238;2023-10-08T06:38:44;5.95;;;3.47;;
66751;SDS011;53663;42.676;23.238;2023-10-08T06:41:14;6.13;;;3.78;;
66751;SDS011;53663;42.676;23.238;2023-10-08T06:43:46;7.90;;;3.70;;
66751;SDS011;53663;42.676;23.238;2023-10-08T06:46:27;8.82;;;3.80;;
66751;SDS011;53663;42.676;23.238;2023-10-08T06:48:58;6.60;;;3.85;;
66751;SDS011;53663;42.676;23.238;2023-10-08T06:51:28;5.65;;;3.63;;
66751;SDS011;53663;42.676;23.238;2023-10-08T06:53:55;6.60;;;3.65;;
66751;SDS011;53663;42.676;23.238;2023-10-08T06:56:24;7.18;;;3.95;;
66751;SDS011;53663;42.676;23.238;2023-10-08T06:58:50;6.07;;;3.90;;
66751;SDS011;53663;42.676;23.238;2023-10-08T07:01:21;6.30;;;3.65;;
66751;SDS011;53663;42.676;23.238;2023-10-08T07:03:50;5.95;;;3.67;;
66751;SDS011;53663;42.676;23.238;2023-10-08T07:08:56;6.55;;;3.92;;
66751;SDS011;53663;42.676;23.238;2023-10-08T07:11:24;5.72;;;3.97;;
66751;SDS011;53663;42.676;23.238;2023-10-08T07:13:52;6.22;;;3.97;;
66751;SDS011;53663;42.676;23.238;2023-10-08T07:16:18;6.18;;;4.10;;
66751;SDS011;53663;42.676;23.238;2023-10-08T07:18:44;8.45;;;3.95;;
66751;SDS011;53663;42.676;23.238;2023-10-08T07:21:18;7.75;;;4.03;;
66751;SDS011;53663;42.676;23.238;2023-10-08T07:23:49;7.53;;;3.78;;
66751;SDS011;53663;42.676;23.238;2023-10-08T07:26:26;9.35;;;4.15;;
66751;SDS011;53663;42.676;23.238;2023-10-08T07:29:01;5.90;;;3.80;;
66751;SDS011;53663;42.676;23.238;2023-10-08T07:31:33;8.30;;;4.22;;
66751;SDS011;53663;42.676;23.238;2023-10-08T07:33:59;11.30;;;4.10;;
66751;SDS011;53663;42.676;23.238;2023-10-08T07:36:40;8.57;;;3.90;;
66751;SDS011;53663;42.676;23.238;2023-10-08T07:39:07;7.90;;;4.07;;
66751;SDS011;53663;42.676;23.238;2023-10-08T07:41:45;7.38;;;3.95;;
66751;SDS011;53663;42.676;23.238;2023-10-08T07:44:12;7.22;;;3.90;;
66751;SDS011;53663;42.676;23.238;2023-10-08T07:46:37;7.30;;;4.22;;
66751;SDS011;53663;42.676;23.238;2023-10-08T07:49:03;5.95;;;4.10;;
66751;SDS011;53663;42.676;23.238;2023-10-08T07:51:30;6.93;;;4.13;;
66751;SDS011;53663;42.676;23.238;2023-10-08T07:53:55;8.60;;;4.07;;
66751;SDS011;53663;42.676;23.238;2023-10-08T07:56:24;5.38;;;3.88;;
66751;SDS011;53663;42.676;23.238;2023-10-08T07:58:51;6.43;;;4.10;;
66751;SDS011;53663;42.676;23.238;2023-10-08T08:01:17;8.50;;;4.60;;
66751;SDS011;53663;42.676;23.238;2023-10-08T08:03:45;6.07;;;4.15;;
66751;SDS011;53663;42.676;23.238;2023-10-08T08:06:13;5.72;;;4.15;;
66751;SDS011;53663;42.676;23.238;2023-10-08T08:08:40;5.63;;;4.53;;
66751;SDS011;53663;42.676;23.238;2023-10-08T08:11:06;6.82;;;4.43;;
66751;SDS011;53663;42.676;23.238;2023-10-08T08:13:39;8.07;;;4.20;;
66751;SDS011;53663;42.676;23.238;2023-10-08T08:16:08;6.82;;;4.57;;
66751;SDS011;53663;42.676;23.238;2023-10-08T08:18:49;6.82;;;4.53;;
66751;SDS011;53663;42.676;23.238;2023-10-08T08:21:17;8.27;;;4.47;;
66751;SDS011;53663;42.676;23.238;2023-10-08T08:23:45;6.18;;;4.30;;
66751;SDS011;53663;42.676;23.238;2023-10-08T08:26:15;5.97;;;4.43;;
66751;SDS011;53663;42.676;23.238;2023-10-08T08:29:00;5.82;;;4.43;;
66751;SDS011;53663;42.676;23.238;2023-10-08T08:31:27;8.18;;;4.93;;
66751;SDS011;53663;42.676;23.238;2023-10-08T08:33:57;6.43;;;4.20;;
66751;SDS011;53663;42.676;23.238;2023-10-08T08:36:28;11.00;;;4.22;;
66751;SDS011;53663;42.676;23.238;2023-10-08T08:38:55;8.18;;;4.68;;
66751;SDS011;53663;42.676;23.238;2023-10-08T08:41:21;6.88;;;4.30;;
66751;SDS011;53663;42.676;23.238;2023-10-08T08:43:49;8.75;;;4.50;;
66751;SDS011;53663;42.676;23.238;2023-10-08T08:46:14;10.43;;;4.57;;
66751;SDS011;53663;42.676;23.238;2023-10-08T08:48:41;9.95;;;5.18;;
66751;SDS011;53663;42.676;23.238;2023-10-08T08:51:11;6.35;;;4.57;;
66751;SDS011;53663;42.676;23.238;2023-10-08T08:53:38;8.07;;;5.20;;
66751;SDS011;53663;42.676;23.238;2023-10-08T08:56:06;8.15;;;5.25;;
66751;SDS011;53663;42.676;23.238;2023-10-08T08:58:34;8.77;;;4.90;;
66751;SDS011;53663;42.676;23.238;2023-10-08T09:01:00;9.57;;;4.93;;
66751;SDS011;53663;42.676;23.238;2023-10-08T09:03:29;6.57;;;4.50;;
66751;SDS011;53663;42.676;23.238;2023-10-08T09:05:57;7.57;;;4.85;;
66751;SDS011;53663;42.676;23.238;2023-10-08T09:08:27;9.13;;;4.68;;
66751;SDS011;53663;42.676;23.238;2023-10-08T09:11:02;7.07;;;4.70;;
66751;SDS011;53663;42.676;23.238;2023-10-08T09:13:31;9.85;;;4.20;;
66751;SDS011;53663;42.676;23.238;2023-10-08T09:16:07;10.20;;;5.00;;
66751;SDS011;53663;42.676;23.238;2023-10-08T09:18:34;7.80;;;4.57;;
66751;SDS011;53663;42.676;23.238;2023-10-08T09:21:16;9.00;;;4.28;;
66751;SDS011;53663;42.676;23.238;2023-10-08T09:23:51;9.10;;;4.55;;
66751;SDS011;53663;42.676;23.238;2023-10-08T09:26:22;7.68;;;4.72;;
66751;SDS011;53663;42.676;23.238;2023-10-08T09:28:49;7.43;;;4.53;;
66751;SDS011;53663;42.676;23.238;2023-10-08T09:31:16;8.27;;;4.85;;
66751;SDS011;53663;42.676;23.238;2023-10-08T09:33:55;8.00;;;4.93;;
66751;SDS011;53663;42.676;23.238;2023-10-08T09:36:22;7.45;;;4.90;;
66751;SDS011;53663;42.676;23.238;2023-10-08T09:39:05;8.93;;;5.10;;
66751;SDS011;53663;42.676;23.238;2023-10-08T09:41:33;8.25;;;4.80;;
66751;SDS011;53663;42.676;23.238;2023-10-08T09:43:59;7.90;;;4.68;;
66751;SDS011;53663;42.676;23.238;2023-10-08T09:46:29;6.18;;;4.40;;
66751;SDS011;53663;42.676;23.238;2023-10-08T09:48:59;8.02;;;4.45;;
66751;SDS011;53663;42.676;23.238;2023-10-08T09:51:27;9.80;;;4.70;;
66751;SDS011;53663;42.676;23.238;2023-10-08T09:56:35;6.93;;;4.32;;
66751;SDS011;53663;42.676;23.238;2023-10-08T09:59:01;11.73;;;4.50;;
66751;SDS011;53663;42.676;23.238;2023-10-08T10:01:28;8.18;;;4.25;;
66751;SDS011;53663;42.676;23.238;2023-10-08T10:03:57;12.40;;;4.30;;
66751;SDS011;53663;42.676;23.238;2023-10-08T10:06:25;10.40;;;4.65;;
66751;SDS011;53663;42.676;23.238;2023-10-08T10:08:52;8.13;;;4.95;;
66751;SDS011;53663;42.676;23.238;2023-10-08T10:11:25;14.13;;;4.53;;
66751;SDS011;53663;42.676;23.238;2023-10-08T10:13:57;8.25;;;4.70;;
66751;SDS011;53663;42.676;23.238;2023-10-08T10:16:27;12.75;;;4.03;;
66751;SDS011;53663;42.676;23.238;2023-10-08T10:18:56;7.50;;;4.07;;
66751;SDS011;53663;42.676;23.238;2023-10-08T10:21:27;10.80;;;4.07;;
66751;SDS011;53663;42.676;23.238;2023-10-08T10:23:58;7.03;;;3.50;;
66751;SDS011;53663;42.676;23.238;2023-10-08T10:31:40;7.30;;;3.65;;
66751;SDS011;53663;42.676;23.238;2023-10-08T10:34:13;7.70;;;3.53;;
66751;SDS011;53663;42.676;23.238;2023-10-08T10:36:44;8.75;;;3.50;;
66751;SDS011;53663;42.676;23.238;2023-10-08T10:39:15;7.97;;;4.10;;
66751;SDS011;53663;42.676;23.238;2023-10-08T10:41:58;7.03;;;3.65;;
66751;SDS011;53663;42.676;23.238;2023-10-08T10:44:46;6.07;;;3.58;;
66751;SDS011;53663;42.676;23.238;2023-10-08T10:47:14;7.68;;;3.78;;
66751;SDS011;53663;42.676;23.238;2023-10-08T10:49:44;6.30;;;3.13;;
66751;SDS011;53663;42.676;23.238;2023-10-08T10:52:25;6.53;;;3.70;;
66751;SDS011;53663;42.676;23.238;2023-10-08T10:55:12;6.68;;;3.75;;
66751;SDS011;53663;42.676;23.238;2023-10-08T10:57:39;6.68;;;3.63;;
66751;SDS011;53663;42.676;23.238;2023-10-08T11:00:08;8.82;;;4.00;;
66751;SDS011;53663;42.676;23.238;2023-10-08T11:02:52;7.18;;;3.80;;
66751;SDS011;53663;42.676;23.238;2023-10-08T11:05:22;6.10;;;3.72;;
66751;SDS011;53663;42.676;23.238;2023-10-08T11:07:56;6.22;;;3.45;;
66751;SDS011;53663;42.676;23.238;2023-10-08T11:10:33;7.85;;;3.53;;
66751;SDS011;53663;42.676;23.238;2023-10-08T11:13:06;8.65;;;3.08;;
66751;SDS011;53663;42.676;23.238;2023-10-08T11:15:43;8.13;;;3.70;;
66751;SDS011;53663;42.676;23.238;2023-10-08T11:18:14;7.97;;;3.08;;
66751;SDS011;53663;42.676;23.238;2023-10-08T11:20:41;8.45;;;3.30;;
66751;SDS011;53663;42.676;23.238;2023-10-08T11:25:59;10.52;;;3.30;;
66751;SDS011;53663;42.676;23.238;2023-10-08T11:28:28;8.30;;;3.30;;
66751;SDS011;53663;42.676;23.238;2023-10-08T11:30:54;24.38;;;4.03;;
66751;SDS011;53663;42.676;23.238;2023-10-08T11:33:22;11.88;;;3.28;;
66751;SDS011;53663;42.676;23.238;2023-10-08T11:36:03;16.65;;;3.67;;
66751;SDS011;53663;42.676;23.238;2023-10-08T11:38:46;13.30;;;3.40;;
66751;SDS011;53663;42.676;23.238;2023-10-08T11:41:19;11.40;;;3.20;;
66751;SDS011;53663;42.676;23.238;2023-10-08T11:43:48;10.07;;;3.55;;
66751;SDS011;53663;42.676;23.238;2023-10-08T11:46:31;12.07;;;3.95;;
66751;SDS011;53663;42.676;23.238;2023-10-08T11:49:06;12.35;;;3.53;;
66751;SDS011;53663;42.676;23.238;2023-10-08T11:51:35;10.80;;;3.63;;
66751;SDS011;53663;42.676;23.238;2023-10-08T11:54:01;15.00;;;3.95;;
66751;SDS011;53663;42.676;23.238;2023-10-08T11:56:30;13.20;;;4.13;;
66751;SDS011;53663;42.676;23.238;2023-10-08T11:58:58;14.27;;;3.70;;
66751;SDS011;53663;42.676;23.238;2023-10-08T12:01:26;16.83;;;5.28;;
66751;SDS011;53663;42.676;23.238;2023-10-08T12:03:53;10.05;;;4.35;;
66751;SDS011;53663;42.676;23.238;2023-10-08T12:06:24;9.02;;;3.55;;
66751;SDS011;53663;42.676;23.238;2023-10-08T12:08:50;13.48;;;3.97;;
66751;SDS011;53663;42.676;23.238;2023-10-08T12:11:19;14.15;;;3.63;;
66751;SDS011;53663;42.676;23.238;2023-10-08T12:13:48;8.25;;;3.83;;
66751;SDS011;53663;42.676;23.238;2023-10-08T12:16:15;10.73;;;4.00;;
66751;SDS011;53663;42.676;23.238;2023-10-08T12:18:48;7.50;;;3.78;;
66751;SDS011;53663;42.676;23.238;2023-10-08T12:23:43;7.47;;;3.85;;
66751;SDS011;53663;42.676;23.238;2023-10-08T12:26:10;10.10;;;3.58;;
66751;SDS011;53663;42.676;23.238;2023-10-08T12:28:41;10.55;;;4.10;;
66751;SDS011;53663;42.676;23.238;2023-10-08T12:31:09;11.82;;;3.80;;
66751;SDS011;53663;42.676;23.238;2023-10-08T12:33:35;12.45;;;3.80;;
66751;SDS011;53663;42.676;23.238;2023-10-08T12:36:01;9.55;;;4.03;;
66751;SDS011;53663;42.676;23.238;2023-10-08T12:38:39;14.02;;;3.65;;
66751;SDS011;53663;42.676;23.238;2023-10-08T12:41:06;13.18;;;4.38;;
66751;SDS011;53663;42.676;23.238;2023-10-08T12:43:42;14.90;;;3.83;;
66751;SDS011;53663;42.676;23.238;2023-10-08T12:46:17;14.90;;;4.60;;
66751;SDS011;53663;42.676;23.238;2023-10-08T12:48:47;11.75;;;3.45;;
66751;SDS011;53663;42.676;23.238;2023-10-08T12:51:17;11.27;;;3.30;;
66751;SDS011;53663;42.676;23.238;2023-10-08T12:53:43;10.88;;;3.50;;
66751;SDS011;53663;42.676;23.238;2023-10-08T12:56:16;16.08;;;4.10;;
66751;SDS011;53663;42.676;23.238;2023-10-08T12:58:42;14.48;;;4.47;;
66751;SDS011;53663;42.676;23.238;2023-10-08T13:01:13;13.23;;;3.75;;
66751;SDS011;53663;42.676;23.238;2023-10-08T13:03:42;7.32;;;3.25;;
66751;SDS011;53663;42.676;23.238;2023-10-08T13:08:47;10.93;;;3.67;;
66751;SDS011;53663;42.676;23.238;2023-10-08T13:11:14;11.95;;;4.10;;
66751;SDS011;53663;42.676;23.238;2023-10-08T13:13:40;12.63;;;3.88;;
66751;SDS011;53663;42.676;23.238;2023-10-08T13:16:06;11.48;;;3.33;;
66751;SDS011;53663;42.676;23.238;2023-10-08T13:18:33;14.27;;;3.95;;
66751;SDS011;53663;42.676;23.238;2023-10-08T13:20:59;14.27;;;3.63;;
66751;SDS011;53663;42.676;23.238;2023-10-08T13:23:26;12.13;;;3.70;;
66751;SDS011;53663;42.676;23.238;2023-10-08T13:25:52;14.35;;;3.80;;
66751;SDS011;53663;42.676;23.238;2023-10-08T13:28:22;12.57;;;4.10;;
66751;SDS011;53663;42.676;23.238;2023-10-08T13:30:51;14.80;;;4.03;;
66751;SDS011;53663;42.676;23.238;2023-10-08T13:33:20;17.90;;;4.13;;
66751;SDS011;53663;42.676;23.238;2023-10-08T13:35:50;14.90;;;4.00;;
66751;SDS011;53663;42.676;23.238;2023-10-08T13:38:16;15.95;;;4.07;;
66751;SDS011;53663;42.676;23.238;2023-10-08T13:40:45;10.63;;;3.25;;
66751;SDS011;53663;42.676;23.238;2023-10-08T13:43:29;14.70;;;3.58;;
66751;SDS011;53663;42.676;23.238;2023-10-08T13:48:30;15.68;;;3.72;;
66751;SDS011;53663;42.676;23.238;2023-10-08T13:50:59;14.07;;;3.20;;
66751;SDS011;53663;42.676;23.238;2023-10-08T13:53:25;18.10;;;3.78;;
66751;SDS011;53663;42.676;23.238;2023-10-08T13:55:55;13.30;;;3.78;;
66751;SDS011;53663;42.676;23.238;2023-10-08T13:58:22;17.15;;;3.78;;
66751;SDS011;53663;42.676;23.238;2023-10-08T14:00:47;17.02;;;3.83;;
66751;SDS011;53663;42.676;23.238;2023-10-08T14:03:16;10.75;;;3.75;;
66751;SDS011;53663;42.676;23.238;2023-10-08T14:05:46;12.32;;;3.30;;
66751;SDS011;53663;42.676;23.238;2023-10-08T14:08:16;11.05;;;3.42;;
66751;SDS011;53663;42.676;23.238;2023-10-08T14:10:44;9.43;;;3.50;;
66751;SDS011;53663;42.676;23.238;2023-10-08T14:13:13;11.65;;;4.03;;
66751;SDS011;53663;42.676;23.238;2023-10-08T14:15:45;8.63;;;3.47;;
66751;SDS011;53663;42.676;23.238;2023-10-08T14:18:13;14.18;;;3.67;;
66751;SDS011;53663;42.676;23.238;2023-10-08T14:20:43;14.35;;;3.72;;
66751;SDS011;53663;42.676;23.238;2023-10-08T14:23:12;39.13;;;4.78;;
66751;SDS011;53663;42.676;23.238;2023-10-08T14:25:39;12.63;;;3.53;;
66751;SDS011;53663;42.676;23.238;2023-10-08T14:28:10;13.43;;;3.67;;
66751;SDS011;53663;42.676;23.238;2023-10-08T14:30:47;12.50;;;3.22;;
66751;SDS011;53663;42.676;23.238;2023-10-08T14:33:18;23.98;;;3.90;;
66751;SDS011;53663;42.676;23.238;2023-10-08T14:35:50;25.67;;;3.83;;
66751;SDS011;53663;42.676;23.238;2023-10-08T14:38:34;81.60;;;5.32;;
66751;SDS011;53663;42.676;23.238;2023-10-08T14:41:19;21.73;;;3.47;;
66751;SDS011;53663;42.676;23.238;2023-10-08T14:44:03;15.25;;;3.47;;
66751;SDS011;53663;42.676;23.238;2023-10-08T14:46:29;20.77;;;3.55;;
66751;SDS011;53663;42.676;23.238;2023-10-08T14:48:58;21.23;;;4.28;;
66751;SDS011;53663;42.676;23.238;2023-10-08T14:51:24;22.55;;;4.25;;
66751;SDS011;53663;42.676;23.238;2023-10-08T14:53:51;21.92;;;4.10;;
66751;SDS011;53663;42.676;23.238;2023-10-08T14:56:17;18.27;;;3.15;;
66751;SDS011;53663;42.676;23.238;2023-10-08T14:58:43;20.38;;;3.65;;
66751;SDS011;53663;42.676;23.238;2023-10-08T15:01:09;13.63;;;3.67;;
66751;SDS011;53663;42.676;23.238;2023-10-08T15:03:38;23.98;;;4.10;;
66751;SDS011;53663;42.676;23.238;2023-10-08T15:06:04;14.07;;;3.25;;
66751;SDS011;53663;42.676;23.238;2023-10-08T15:08:32;19.27;;;4.28;;
66751;SDS011;53663;42.676;23.238;2023-10-08T15:10:58;13.07;;;4.00;;
66751;SDS011;53663;42.676;23.238;2023-10-08T15:13:25;17.55;;;4.05;;
66751;SDS011;53663;42.676;23.238;2023-10-08T15:15:51;14.75;;;3.67;;
66751;SDS011;53663;42.676;23.238;2023-10-08T15:18:19;16.00;;;3.53;;
66751;SDS011;53663;42.676;23.238;2023-10-08T15:20:48;14.88;;;3.53;;